sensor_id;sensor_type;location;lat;lon;timestamp;pressure;altitude;pressure_sealevel;temperature;humidity
5296;BME280;2670;42.720;23.336;2023-04-09T00:01:34;-22647.63;;;7.07;100.00
5296;BME280;2670;42.720;23.336;2023-04-09T00:04:01;-22646.28;;;7.02;100.00
5296;BME280;2670;42.720;23.336;2023-04-09T00:06:27;-22647.47;;;7.06;100.00
5296;BME280;2670;42.720;23.336;2023-04-09T00:08:56;-22646.13;;;7.02;100.00
5296;BME280;2670;42.720;23.336;2023-04-09T00:11:23;-22648.50;;;7.10;100.00
5296;BME280;2670;42.720;23.336;2023-04-09T00:13:50;-22647.78;;;7.07;100.00
5296;BME280;2670;42.720;23.336;2023-04-09T00:16:16;-22648.34;;;7.09;100.00
5296;BME280;2670;42.720;23.336;2023-04-09T00:18:43;-22650.75;;;7.17;100.00
5296;BME280;2670;42.720;23.336;2023-04-09T00:21:10;-22647.91;;;7.08;100.00
5296;BME280;2670;42.720;23.336;2023-04-09T00:23:37;-22647.91;;;7.08;100.00
5296;BME280;2670;42.720;23.336;2023-04-09T00:26:05;-22648.34;;;7.09;100.00
5296;BME280;2670;42.720;23.336;2023-04-09T00:28:32;-22647.63;;;7.07;100.00
5296;BME280;2670;42.720;23.336;2023-04-09T00:30:59;-22647.63;;;7.07;100.00
5296;BME280;2670;42.720;23.336;2023-04-09T00:33:25;-22647.91;;;7.08;100.00
5296;BME280;2670;42.720;23.336;2023-04-09T00:35:52;-22650.16;;;7.15;100.00
5296;BME280;2670;42.720;23.336;2023-04-09T00:38:19;-22648.50;;;7.10;100.00
5296;BME280;2670;42.720;23.336;2023-04-09T00:40:47;-22649.69;;;7.14;100.00
5296;BME280;2670;42.720;23.336;2023-04-09T00:43:16;-22649.09;;;7.12;100.00
5296;BME280;2670;42.720;23.336;2023-04-09T00:45:43;-22648.81;;;7.11;100.00
5296;BME280;2670;42.720;23.336;2023-04-09T00:48:11;-22647.47;;;7.06;100.00
5296;BME280;2670;42.720;23.336;2023-04-09T00:50:38;-22648.50;;;7.10;100.00
5296;BME280;2670;42.720;23.336;2023-04-09T00:53:05;-22647.91;;;7.08;100.00
5296;BME280;2670;42.720;23.336;2023-04-09T00:55:33;-22648.66;;;7.10;100.00
5296;BME280;2670;42.720;23.336;2023-04-09T00:57:59;-22647.91;;;7.08;100.00
5296;BME280;2670;42.720;23.336;2023-04-09T01:00:28;-22646.13;;;7.02;100.00
5296;BME280;2670;42.720;23.336;2023-04-09T01:02:55;-22646.13;;;7.02;100.00
5296;BME280;2670;42.720;23.336;2023-04-09T01:05:23;-22646.28;;;7.02;100.00
5296;BME280;2670;42.720;23.336;2023-04-09T01:08:00;-22647.03;;;7.05;100.00
5296;BME280;2670;42.720;23.336;2023-04-09T01:10:31;-22646.44;;;7.03;100.00
5296;BME280;2670;42.720;23.336;2023-04-09T01:13:06;-22647.63;;;7.07;100.00
5296;BME280;2670;42.720;23.336;2023-04-09T01:15:38;-22644.94;;;6.97;100.00
5296;BME280;2670;42.720;23.336;2023-04-09T01:18:10;-22643.91;;;6.94;100.00
5296;BME280;2670;42.720;23.336;2023-04-09T01:20:42;-22646.56;;;7.03;100.00
5296;BME280;2670;42.720;23.336;2023-04-09T01:23:17;-22647.31;;;7.06;100.00
5296;BME280;2670;42.720;23.336;2023-04-09T01:26:00;-22647.78;;;7.07;100.00
5296;BME280;2670;42.720;23.336;2023-04-09T01:28:32;-22646.88;;;7.04;100.00
5296;BME280;2670;42.720;23.336;2023-04-09T01:31:03;-22645.09;;;6.98;100.00
5296;BME280;2670;42.720;23.336;2023-04-09T01:33:33;-22647.03;;;7.05;100.00
5296;BME280;2670;42.720;23.336;2023-04-09T01:36:01;-22646.13;;;7.02;100.00
5296;BME280;2670;42.720;23.336;2023-04-09T01:38:30;-22645.09;;;6.98;100.00
5296;BME280;2670;42.720;23.336;2023-04-09T01:40:58;-22646.13;;;7.02;100.00
5296;BME280;2670;42.720;23.336;2023-04-09T01:43:26;-22647.91;;;7.08;100.00
5296;BME280;2670;42.720;23.336;2023-04-09T01:45:54;-22650.00;;;7.15;100.00
5296;BME280;2670;42.720;23.336;2023-04-09T01:48:22;-22648.50;;;7.10;100.00
5296;BME280;2670;42.720;23.336;2023-04-09T01:50:50;-22646.28;;;7.02;100.00
5296;BME280;2670;42.720;23.336;2023-04-09T01:53:17;-22646.13;;;7.02;100.00
5296;BME280;2670;42.720;23.336;2023-04-09T01:55:43;-22648.50;;;7.10;100.00
5296;BME280;2670;42.720;23.336;2023-04-09T01:58:10;-22647.63;;;7.07;100.00
5296;BME280;2670;42.720;23.336;2023-04-09T02:00:39;-22645.97;;;7.01;100.00
5296;BME280;2670;42.720;23.336;2023-04-09T02:03:15;-22644.66;;;6.96;100.00
5296;BME280;2670;42.720;23.336;2023-04-09T02:05:46;-22645.09;;;6.98;100.00
5296;BME280;2670;42.720;23.336;2023-04-09T02:08:18;-22645.97;;;7.01;100.00
5296;BME280;2670;42.720;23.336;2023-04-09T02:10:50;-22644.50;;;6.96;100.00
5296;BME280;2670;42.720;23.336;2023-04-09T02:13:20;-22643.59;;;6.93;100.00
5296;BME280;2670;42.720;23.336;2023-04-09T02:15:48;-22644.19;;;6.95;100.00
5296;BME280;2670;42.720;23.336;2023-04-09T02:18:24;-22645.69;;;7.00;100.00
5296;BME280;2670;42.720;23.336;2023-04-09T02:20:53;-22644.34;;;6.95;100.00
5296;BME280;2670;42.720;23.336;2023-04-09T02:23:20;-22643.44;;;6.92;100.00
5296;BME280;2670;42.720;23.336;2023-04-09T02:25:46;-22643.44;;;6.92;100.00
5296;BME280;2670;42.720;23.336;2023-04-09T02:28:13;-22641.97;;;6.87;100.00
5296;BME280;2670;42.720;23.336;2023-04-09T02:30:40;-22640.03;;;6.81;100.00
5296;BME280;2670;42.720;23.336;2023-04-09T02:33:06;-22640.03;;;6.81;100.00
5296;BME280;2670;42.720;23.336;2023-04-09T02:35:34;-22640.34;;;6.82;100.00
5296;BME280;2670;42.720;23.336;2023-04-09T02:38:02;-22637.81;;;6.73;100.00
5296;BME280;2670;42.720;23.336;2023-04-09T02:40:28;-22635.88;;;6.66;100.00
5296;BME280;2670;42.720;23.336;2023-04-09T02:42:56;-22635.13;;;6.64;100.00
5296;BME280;2670;42.720;23.336;2023-04-09T02:45:23;-22631.09;;;6.50;100.00
5296;BME280;2670;42.720;23.336;2023-04-09T02:47:49;-22633.63;;;6.59;100.00
5296;BME280;2670;42.720;23.336;2023-04-09T02:50:16;-22633.94;;;6.60;100.00
5296;BME280;2670;42.720;23.336;2023-04-09T02:52:46;-22632.75;;;6.56;100.00
5296;BME280;2670;42.720;23.336;2023-04-09T02:55:13;-22634.53;;;6.62;100.00
5296;BME280;2670;42.720;23.336;2023-04-09T02:57:40;-22632.88;;;6.56;100.00
5296;BME280;2670;42.720;23.336;2023-04-09T03:00:07;-22631.41;;;6.51;100.00
5296;BME280;2670;42.720;23.336;2023-04-09T03:02:34;-22629.91;;;6.46;100.00
5296;BME280;2670;42.720;23.336;2023-04-09T03:05:01;-22629.47;;;6.44;100.00
5296;BME280;2670;42.720;23.336;2023-04-09T03:07:28;-22629.16;;;6.43;100.00
5296;BME280;2670;42.720;23.336;2023-04-09T03:09:57;-22627.97;;;6.39;100.00
5296;BME280;2670;42.720;23.336;2023-04-09T03:12:23;-22626.78;;;6.35;100.00
5296;BME280;2670;42.720;23.336;2023-04-09T03:14:50;-22627.25;;;6.37;100.00
5296;BME280;2670;42.720;23.336;2023-04-09T03:17:17;-22625.59;;;6.31;100.00
5296;BME280;2670;42.720;23.336;2023-04-09T03:19:43;-22627.25;;;6.37;100.00
5296;BME280;2670;42.720;23.336;2023-04-09T03:22:10;-22624.25;;;6.27;100.00
5296;BME280;2670;42.720;23.336;2023-04-09T03:24:40;-22624.56;;;6.28;100.00
5296;BME280;2670;42.720;23.336;2023-04-09T03:27:08;-22622.19;;;6.19;100.00
5296;BME280;2670;42.720;23.336;2023-04-09T03:29:34;-22621.00;;;6.15;100.00
5296;BME280;2670;42.720;23.336;2023-04-09T03:32:01;-22620.38;;;6.13;100.00
5296;BME280;2670;42.720;23.336;2023-04-09T03:34:28;-22620.69;;;6.14;100.00
5296;BME280;2670;42.720;23.336;2023-04-09T03:36:54;-22619.50;;;6.10;100.00
5296;BME280;2670;42.720;23.336;2023-04-09T03:39:21;-22617.72;;;6.04;100.00
5296;BME280;2670;42.720;23.336;2023-04-09T03:41:48;-22617.56;;;6.04;100.00
5296;BME280;2670;42.720;23.336;2023-04-09T03:44:16;-22615.78;;;5.97;100.00
5296;BME280;2670;42.720;23.336;2023-04-09T03:46:42;-22615.19;;;5.95;100.00
5296;BME280;2670;42.720;23.336;2023-04-09T03:49:09;-22613.97;;;5.91;100.00
5296;BME280;2670;42.720;23.336;2023-04-09T03:51:36;-22612.66;;;5.87;100.00
5296;BME280;2670;42.720;23.336;2023-04-09T03:54:03;-22611.16;;;5.82;100.00
5296;BME280;2670;42.720;23.336;2023-04-09T03:56:29;-22610.84;;;5.81;100.00
5296;BME280;2670;42.720;23.336;2023-04-09T03:58:56;-22610.84;;;5.81;100.00
5296;BME280;2670;42.720;23.336;2023-04-09T04:01:24;-22609.50;;;5.76;100.00
5296;BME280;2670;42.720;23.336;2023-04-09T04:03:51;-22610.84;;;5.81;100.00
5296;BME280;2670;42.720;23.336;2023-04-09T04:06:17;-22609.50;;;5.76;100.00
5296;BME280;2670;42.720;23.336;2023-04-09T04:08:44;-22610.13;;;5.78;100.00
5296;BME280;2670;42.720;23.336;2023-04-09T04:11:11;-22607.28;;;5.68;100.00
5296;BME280;2670;42.720;23.336;2023-04-09T04:13:37;-22609.97;;;5.78;100.00
5296;BME280;2670;42.720;23.336;2023-04-09T04:16:06;-22607.59;;;5.69;100.00
5296;BME280;2670;42.720;23.336;2023-04-09T04:18:35;-22608.19;;;5.71;100.00
5296;BME280;2670;42.720;23.336;2023-04-09T04:21:01;-22609.81;;;5.77;100.00
5296;BME280;2670;42.720;23.336;2023-04-09T04:23:28;-22608.31;;;5.72;100.00
5296;BME280;2670;42.720;23.336;2023-04-09T04:25:55;-22607.72;;;5.70;100.00
5296;BME280;2670;42.720;23.336;2023-04-09T04:28:22;-22609.38;;;5.75;100.00
5296;BME280;2670;42.720;23.336;2023-04-09T04:30:49;-22607.88;;;5.70;100.00
5296;BME280;2670;42.720;23.336;2023-04-09T04:33:16;-22607.88;;;5.70;100.00
5296;BME280;2670;42.720;23.336;2023-04-09T04:35:44;-22607.59;;;5.69;100.00
5296;BME280;2670;42.720;23.336;2023-04-09T04:38:10;-22606.53;;;5.66;100.00
5296;BME280;2670;42.720;23.336;2023-04-09T04:40:37;-22607.59;;;5.69;100.00
5296;BME280;2670;42.720;23.336;2023-04-09T04:43:04;-22609.22;;;5.75;100.00
5296;BME280;2670;42.720;23.336;2023-04-09T04:45:30;-22611.31;;;5.82;100.00
5296;BME280;2670;42.720;23.336;2023-04-09T04:47:57;-22607.44;;;5.69;100.00
5296;BME280;2670;42.720;23.336;2023-04-09T04:50:24;-22608.91;;;5.74;100.00
5296;BME280;2670;42.720;23.336;2023-04-09T04:52:52;-22610.56;;;5.80;100.00
5296;BME280;2670;42.720;23.336;2023-04-09T04:55:18;-22612.50;;;5.86;100.00
5296;BME280;2670;42.720;23.336;2023-04-09T04:57:45;-22613.09;;;5.88;100.00
5296;BME280;2670;42.720;23.336;2023-04-09T05:00:13;-22614.72;;;5.94;100.00
5296;BME280;2670;42.720;23.336;2023-04-09T05:02:39;-22613.97;;;5.91;100.00
5296;BME280;2670;42.720;23.336;2023-04-09T05:05:06;-22619.19;;;6.09;100.00
5296;BME280;2670;42.720;23.336;2023-04-09T05:07:33;-22617.25;;;6.03;100.00
5296;BME280;2670;42.720;23.336;2023-04-09T05:10:01;-22619.19;;;6.09;100.00
5296;BME280;2670;42.720;23.336;2023-04-09T05:12:30;-22623.97;;;6.26;100.00
5296;BME280;2670;42.720;23.336;2023-04-09T05:14:57;-22625.16;;;6.30;100.00
5296;BME280;2670;42.720;23.336;2023-04-09T05:17:23;-22625.59;;;6.31;100.00
5296;BME280;2670;42.720;23.336;2023-04-09T05:19:50;-22626.19;;;6.33;100.00
5296;BME280;2670;42.720;23.336;2023-04-09T05:22:17;-22630.66;;;6.48;100.00
5296;BME280;2670;42.720;23.336;2023-04-09T05:24:44;-22633.19;;;6.57;100.00
5296;BME280;2670;42.720;23.336;2023-04-09T05:27:12;-22634.69;;;6.62;100.00
5296;BME280;2670;42.720;23.336;2023-04-09T05:29:39;-22634.69;;;6.62;100.00
5296;BME280;2670;42.720;23.336;2023-04-09T05:32:06;-22636.91;;;6.70;100.00
5296;BME280;2670;42.720;23.336;2023-04-09T05:34:33;-22637.94;;;6.73;100.00
5296;BME280;2670;42.720;23.336;2023-04-09T05:37:00;-22639.59;;;6.79;100.00
5296;BME280;2670;42.720;23.336;2023-04-09T05:39:27;-22638.69;;;6.76;100.00
5296;BME280;2670;42.720;23.336;2023-04-09T05:41:54;-22636.16;;;6.67;100.00
5296;BME280;2670;42.720;23.336;2023-04-09T05:44:22;-22638.41;;;6.75;100.00
5296;BME280;2670;42.720;23.336;2023-04-09T05:46:48;-22639.72;;;6.80;100.00
5296;BME280;2670;42.720;23.336;2023-04-09T05:49:15;-22637.94;;;6.73;100.00
5296;BME280;2670;42.720;23.336;2023-04-09T05:51:42;-22639.59;;;6.79;100.00
5296;BME280;2670;42.720;23.336;2023-04-09T05:54:09;-22641.53;;;6.86;100.00
5296;BME280;2670;42.720;23.336;2023-04-09T05:56:36;-22644.66;;;6.96;100.00
5296;BME280;2670;42.720;23.336;2023-04-09T05:59:02;-22645.69;;;7.00;100.00
5296;BME280;2670;42.720;23.336;2023-04-09T06:01:30;-22647.16;;;7.05;100.00
5296;BME280;2670;42.720;23.336;2023-04-09T06:03:57;-22648.50;;;7.10;100.00
5296;BME280;2670;42.720;23.336;2023-04-09T06:06:24;-22648.50;;;7.10;100.00
5296;BME280;2670;42.720;23.336;2023-04-09T06:08:51;-22649.25;;;7.12;100.00
5296;BME280;2670;42.720;23.336;2023-04-09T06:11:18;-22650.44;;;7.16;100.00
5296;BME280;2670;42.720;23.336;2023-04-09T06:13:45;-22652.38;;;7.23;100.00
5296;BME280;2670;42.720;23.336;2023-04-09T06:16:12;-22650.28;;;7.16;100.00
5296;BME280;2670;42.720;23.336;2023-04-09T06:18:40;-22652.97;;;7.25;100.00
5296;BME280;2670;42.720;23.336;2023-04-09T06:21:07;-22652.69;;;7.24;100.00
5296;BME280;2670;42.720;23.336;2023-04-09T06:23:35;-22654.47;;;7.30;100.00
5296;BME280;2670;42.720;23.336;2023-04-09T06:26:02;-22655.94;;;7.35;100.00
5296;BME280;2670;42.720;23.336;2023-04-09T06:28:28;-22658.03;;;7.42;100.00
5296;BME280;2670;42.720;23.336;2023-04-09T06:30:56;-22658.16;;;7.43;100.00
5296;BME280;2670;42.720;23.336;2023-04-09T06:33:23;-22661.16;;;7.53;100.00
5296;BME280;2670;42.720;23.336;2023-04-09T06:35:51;-22661.88;;;7.56;100.00
5296;BME280;2670;42.720;23.336;2023-04-09T06:38:18;-22665.44;;;7.68;100.00
5296;BME280;2670;42.720;23.336;2023-04-09T06:40:45;-22667.97;;;7.77;100.00
5296;BME280;2670;42.720;23.336;2023-04-09T06:43:11;-22669.16;;;7.81;100.00
5296;BME280;2670;42.720;23.336;2023-04-09T06:45:38;-22670.81;;;7.86;100.00
5296;BME280;2670;42.720;23.336;2023-04-09T06:48:05;-22673.78;;;7.96;100.00
5296;BME280;2670;42.720;23.336;2023-04-09T06:50:32;-22674.38;;;7.98;100.00
5296;BME280;2670;42.720;23.336;2023-04-09T06:53:01;-22674.22;;;7.98;100.00
5296;BME280;2670;42.720;23.336;2023-04-09T06:55:27;-22673.47;;;7.95;100.00
5296;BME280;2670;42.720;23.336;2023-04-09T06:57:54;-22674.66;;;7.99;100.00
5296;BME280;2670;42.720;23.336;2023-04-09T07:00:21;-22673.91;;;7.97;100.00
5296;BME280;2670;42.720;23.336;2023-04-09T07:02:48;-22676.44;;;8.06;100.00
5296;BME280;2670;42.720;23.336;2023-04-09T07:05:15;-22677.78;;;8.10;100.00
5296;BME280;2670;42.720;23.336;2023-04-09T07:07:42;-22677.94;;;8.11;100.00
5296;BME280;2670;42.720;23.336;2023-04-09T07:10:10;-22680.59;;;8.20;100.00
5296;BME280;2670;42.720;23.336;2023-04-09T07:12:36;-22682.38;;;8.26;100.00
5296;BME280;2670;42.720;23.336;2023-04-09T07:15:05;-22684.63;;;8.34;100.00
5296;BME280;2670;42.720;23.336;2023-04-09T07:17:32;-22686.69;;;8.41;100.00
5296;BME280;2670;42.720;23.336;2023-04-09T07:19:59;-22690.28;;;8.53;100.00
5296;BME280;2670;42.720;23.336;2023-04-09T07:22:27;-22691.91;;;8.59;100.00
5296;BME280;2670;42.720;23.336;2023-04-09T07:24:54;-22692.66;;;8.61;100.00
5296;BME280;2670;42.720;23.336;2023-04-09T07:27:24;-22692.03;;;8.59;100.00
5296;BME280;2670;42.720;23.336;2023-04-09T07:29:53;-22694.13;;;8.66;100.00
5296;BME280;2670;42.720;23.336;2023-04-09T07:32:21;-22696.06;;;8.73;100.00
5296;BME280;2670;42.720;23.336;2023-04-09T07:34:50;-22695.59;;;8.71;100.00
5296;BME280;2670;42.720;23.336;2023-04-09T07:37:17;-22699.31;;;8.84;100.00
5296;BME280;2670;42.720;23.336;2023-04-09T07:39:43;-22699.31;;;8.84;100.00
5296;BME280;2670;42.720;23.336;2023-04-09T07:42:13;-22700.50;;;8.88;100.00
5296;BME280;2670;42.720;23.336;2023-04-09T07:44:41;-22703.19;;;8.97;100.00
5296;BME280;2670;42.720;23.336;2023-04-09T07:47:08;-22703.78;;;9.00;100.00
5296;BME280;2670;42.720;23.336;2023-04-09T07:49:35;-22706.16;;;9.08;100.00
5296;BME280;2670;42.720;23.336;2023-04-09T07:52:03;-22707.94;;;9.14;100.00
5296;BME280;2670;42.720;23.336;2023-04-09T07:54:30;-22707.47;;;9.12;100.00
5296;BME280;2670;42.720;23.336;2023-04-09T07:56:57;-22706.59;;;9.09;100.00
5296;BME280;2670;42.720;23.336;2023-04-09T07:59:24;-22708.66;;;9.16;100.00
5296;BME280;2670;42.720;23.336;2023-04-09T08:01:53;-22708.81;;;9.17;100.00
5296;BME280;2670;42.720;23.336;2023-04-09T08:04:19;-22707.94;;;9.14;100.00
5296;BME280;2670;42.720;23.336;2023-04-09T08:06:47;-22709.56;;;9.19;100.00
5296;BME280;2670;42.720;23.336;2023-04-09T08:09:15;-22707.34;;;9.12;100.00
5296;BME280;2670;42.720;23.336;2023-04-09T08:11:42;-22710.16;;;9.21;100.00
5296;BME280;2670;42.720;23.336;2023-04-09T08:14:10;-22712.09;;;9.28;100.00
5296;BME280;2670;42.720;23.336;2023-04-09T08:16:37;-22713.13;;;9.32;100.00
5296;BME280;2670;42.720;23.336;2023-04-09T08:19:05;-22711.78;;;9.27;100.00
5296;BME280;2670;42.720;23.336;2023-04-09T08:21:32;-22714.44;;;9.36;100.00
5296;BME280;2670;42.720;23.336;2023-04-09T08:24:00;-22714.91;;;9.38;100.00
5296;BME280;2670;42.720;23.336;2023-04-09T08:26:28;-22717.56;;;9.47;100.00
5296;BME280;2670;42.720;23.336;2023-04-09T08:28:55;-22720.97;;;9.59;100.00
5296;BME280;2670;42.720;23.336;2023-04-09T08:31:22;-22720.38;;;9.57;100.00
5296;BME280;2670;42.720;23.336;2023-04-09T08:33:49;-22725.13;;;9.73;100.00
5296;BME280;2670;42.720;23.336;2023-04-09T08:36:19;-22727.94;;;9.83;100.00
5296;BME280;2670;42.720;23.336;2023-04-09T08:38:46;-22730.75;;;9.92;100.00
5296;BME280;2670;42.720;23.336;2023-04-09T08:41:17;-22732.25;;;9.97;100.00
5296;BME280;2670;42.720;23.336;2023-04-09T08:43:45;-22733.56;;;10.02;100.00
5296;BME280;2670;42.720;23.336;2023-04-09T08:46:12;-22739.94;;;10.24;100.00
5296;BME280;2670;42.720;23.336;2023-04-09T08:48:42;-22742.31;;;10.32;100.00
5296;BME280;2670;42.720;23.336;2023-04-09T08:51:12;-22748.09;;;10.52;100.00
5296;BME280;2670;42.720;23.336;2023-04-09T08:53:42;-22747.81;;;10.51;100.00
5296;BME280;2670;42.720;23.336;2023-04-09T08:56:10;-22745.44;;;10.43;100.00
5296;BME280;2670;42.720;23.336;2023-04-09T08:58:41;-22751.22;;;10.63;100.00
5296;BME280;2670;42.720;23.336;2023-04-09T09:01:17;-22752.69;;;10.68;100.00
5296;BME280;2670;42.720;23.336;2023-04-09T09:03:52;-22755.97;;;10.79;100.00
5296;BME280;2670;42.720;23.336;2023-04-09T09:06:21;-22754.91;;;10.76;100.00
5296;BME280;2670;42.720;23.336;2023-04-09T09:09:00;-22755.66;;;10.78;100.00
5296;BME280;2670;42.720;23.336;2023-04-09T09:11:27;-22755.50;;;10.78;100.00
5296;BME280;2670;42.720;23.336;2023-04-09T09:13:59;-22755.06;;;10.76;100.00
5296;BME280;2670;42.720;23.336;2023-04-09T09:16:26;-22755.38;;;10.77;100.00
5296;BME280;2670;42.720;23.336;2023-04-09T09:18:53;-22756.09;;;10.80;100.00
5296;BME280;2670;42.720;23.336;2023-04-09T09:21:21;-22756.56;;;10.81;100.00
5296;BME280;2670;42.720;23.336;2023-04-09T09:23:48;-22759.22;;;10.90;100.00
5296;BME280;2670;42.720;23.336;2023-04-09T09:26:19;-22765.28;;;11.11;100.00
5296;BME280;2670;42.720;23.336;2023-04-09T09:28:47;-22770.16;;;11.28;100.00
5296;BME280;2670;42.720;23.336;2023-04-09T09:31:15;-22775.19;;;11.45;100.00
5296;BME280;2670;42.720;23.336;2023-04-09T09:33:42;-22771.19;;;11.32;100.00
5296;BME280;2670;42.720;23.336;2023-04-09T09:36:09;-22769.88;;;11.27;100.00
5296;BME280;2670;42.720;23.336;2023-04-09T09:38:54;-22771.66;;;11.33;100.00
5296;BME280;2670;42.720;23.336;2023-04-09T09:41:23;-22771.50;;;11.33;100.00
5296;BME280;2670;42.720;23.336;2023-04-09T09:43:50;-22770.75;;;11.30;100.00
5296;BME280;2670;42.720;23.336;2023-04-09T09:46:17;-22767.94;;;11.20;100.00
5296;BME280;2670;42.720;23.336;2023-04-09T09:48:44;-22768.41;;;11.22;100.00
5296;BME280;2670;42.720;23.336;2023-04-09T09:51:12;-22767.81;;;11.20;100.00
5296;BME280;2670;42.720;23.336;2023-04-09T09:53:42;-22766.31;;;11.15;100.00
5296;BME280;2670;42.720;23.336;2023-04-09T09:56:13;-22767.81;;;11.20;98.45
5296;BME280;2670;42.720;23.336;2023-04-09T09:58:44;-22769.28;;;11.25;96.21
5296;BME280;2670;42.720;23.336;2023-04-09T10:01:16;-22770.91;;;11.31;95.79
5296;BME280;2670;42.720;23.336;2023-04-09T10:03:45;-22770.91;;;11.31;95.53
5296;BME280;2670;42.720;23.336;2023-04-09T10:06:13;-22772.97;;;11.38;95.62
5296;BME280;2670;42.720;23.336;2023-04-09T10:08:41;-22774.16;;;11.42;95.24
5296;BME280;2670;42.720;23.336;2023-04-09T10:11:08;-22777.72;;;11.54;94.50
5296;BME280;2670;42.720;23.336;2023-04-09T10:13:39;-22776.69;;;11.51;94.76
5296;BME280;2670;42.720;23.336;2023-04-09T10:16:08;-22781.84;;;11.68;94.52
5296;BME280;2670;42.720;23.336;2023-04-09T10:18:35;-22788.06;;;11.90;94.60
5296;BME280;2670;42.720;23.336;2023-04-09T10:21:06;-22787.63;;;11.88;92.13
5296;BME280;2670;42.720;23.336;2023-04-09T10:23:38;-22785.84;;;11.82;91.38
5296;BME280;2670;42.720;23.336;2023-04-09T10:26:07;-22786.16;;;11.83;89.39
5296;BME280;2670;42.720;23.336;2023-04-09T10:28:36;-22785.69;;;11.82;89.92
5296;BME280;2670;42.720;23.336;2023-04-09T10:31:03;-22784.38;;;11.77;89.65
5296;BME280;2670;42.720;23.336;2023-04-09T10:33:36;-22785.41;;;11.81;89.53
5296;BME280;2670;42.720;23.336;2023-04-09T10:36:03;-22786.75;;;11.85;88.85
5296;BME280;2670;42.720;23.336;2023-04-09T10:38:35;-22791.63;;;12.02;89.15
5296;BME280;2670;42.720;23.336;2023-04-09T10:41:07;-22789.84;;;11.96;88.23
5296;BME280;2670;42.720;23.336;2023-04-09T10:43:35;-22789.84;;;11.96;87.70
5296;BME280;2670;42.720;23.336;2023-04-09T10:46:04;-22794.72;;;12.13;88.66
5296;BME280;2670;42.720;23.336;2023-04-09T10:48:33;-22793.84;;;12.10;87.86
5296;BME280;2670;42.720;23.336;2023-04-09T10:51:01;-22798.44;;;12.26;88.44
5296;BME280;2670;42.720;23.336;2023-04-09T10:53:31;-22799.59;;;12.30;86.54
5296;BME280;2670;42.720;23.336;2023-04-09T10:55:58;-22798.56;;;12.26;85.16
5296;BME280;2670;42.720;23.336;2023-04-09T10:58:25;-22803.91;;;12.44;87.25
5296;BME280;2670;42.720;23.336;2023-04-09T11:00:52;-22808.34;;;12.60;86.53
5296;BME280;2670;42.720;23.336;2023-04-09T11:03:24;-22809.50;;;12.64;82.12
5296;BME280;2670;42.720;23.336;2023-04-09T11:05:57;-22811.44;;;12.70;84.38
5296;BME280;2670;42.720;23.336;2023-04-09T11:08:27;-22810.69;;;12.68;83.73
5296;BME280;2670;42.720;23.336;2023-04-09T11:10:55;-22813.66;;;12.78;82.94
5296;BME280;2670;42.720;23.336;2023-04-09T11:13:23;-22816.31;;;12.87;81.96
5296;BME280;2670;42.720;23.336;2023-04-09T11:15:50;-22818.38;;;12.94;82.81
5296;BME280;2670;42.720;23.336;2023-04-09T11:18:22;-22821.78;;;13.06;80.04
5296;BME280;2670;42.720;23.336;2023-04-09T11:20:54;-22819.56;;;12.99;79.89
5296;BME280;2670;42.720;23.336;2023-04-09T11:23:22;-22818.38;;;12.94;80.98
5296;BME280;2670;42.720;23.336;2023-04-09T11:25:50;-22826.19;;;13.21;79.62
5296;BME280;2670;42.720;23.336;2023-04-09T11:28:18;-22832.84;;;13.44;78.97
5296;BME280;2670;42.720;23.336;2023-04-09T11:30:45;-22837.72;;;13.61;76.57
5296;BME280;2670;42.720;23.336;2023-04-09T11:33:12;-22838.00;;;13.62;74.24
5296;BME280;2670;42.720;23.336;2023-04-09T11:35:39;-22835.81;;;13.55;74.92
5296;BME280;2670;42.720;23.336;2023-04-09T11:38:07;-22833.75;;;13.48;75.54
5296;BME280;2670;42.720;23.336;2023-04-09T11:40:35;-22830.19;;;13.35;73.39
5296;BME280;2670;42.720;23.336;2023-04-09T11:43:07;-22828.28;;;13.29;74.29
5296;BME280;2670;42.720;23.336;2023-04-09T11:45:34;-22828.41;;;13.29;75.99
5296;BME280;2670;42.720;23.336;2023-04-09T11:48:01;-22826.94;;;13.24;76.64
5296;BME280;2670;42.720;23.336;2023-04-09T11:50:28;-22825.03;;;13.17;77.10
5296;BME280;2670;42.720;23.336;2023-04-09T11:52:55;-22824.00;;;13.14;76.50
5296;BME280;2670;42.720;23.336;2023-04-09T11:55:24;-22819.84;;;13.00;72.02
5296;BME280;2670;42.720;23.336;2023-04-09T11:57:52;-22819.56;;;12.99;73.75
5296;BME280;2670;42.720;23.336;2023-04-09T12:00:19;-22821.19;;;13.04;74.46
5296;BME280;2670;42.720;23.336;2023-04-09T12:02:50;-22821.03;;;13.04;72.41
5296;BME280;2670;42.720;23.336;2023-04-09T12:05:21;-22825.59;;;13.19;67.58
5296;BME280;2670;42.720;23.336;2023-04-09T12:07:49;-22826.06;;;13.21;68.43
5296;BME280;2670;42.720;23.336;2023-04-09T12:10:16;-22824.28;;;13.15;66.40
5296;BME280;2670;42.720;23.336;2023-04-09T12:12:46;-22825.59;;;13.19;65.35
5296;BME280;2670;42.720;23.336;2023-04-09T12:15:20;-22824.88;;;13.17;68.82
5296;BME280;2670;42.720;23.336;2023-04-09T12:17:48;-22823.53;;;13.12;66.59
5296;BME280;2670;42.720;23.336;2023-04-09T12:20:29;-22825.16;;;13.18;67.08
5296;BME280;2670;42.720;23.336;2023-04-09T12:22:57;-22824.56;;;13.16;67.19
5296;BME280;2670;42.720;23.336;2023-04-09T12:25:25;-22826.94;;;13.24;68.10
5296;BME280;2670;42.720;23.336;2023-04-09T12:27:55;-22828.13;;;13.28;67.42
5296;BME280;2670;42.720;23.336;2023-04-09T12:30:22;-22827.25;;;13.25;66.49
5296;BME280;2670;42.720;23.336;2023-04-09T12:32:50;-22824.00;;;13.14;66.30
5296;BME280;2670;42.720;23.336;2023-04-09T12:35:17;-22823.41;;;13.12;66.15
5296;BME280;2670;42.720;23.336;2023-04-09T12:37:44;-22821.47;;;13.05;65.97
5296;BME280;2670;42.720;23.336;2023-04-09T12:40:11;-22823.84;;;13.13;67.33
5296;BME280;2670;42.720;23.336;2023-04-09T12:42:39;-22827.53;;;13.26;68.26
5296;BME280;2670;42.720;23.336;2023-04-09T12:45:08;-22825.91;;;13.20;67.35
5296;BME280;2670;42.720;23.336;2023-04-09T12:47:35;-22822.06;;;13.07;67.42
5296;BME280;2670;42.720;23.336;2023-04-09T12:50:05;-22824.13;;;13.14;67.80
5296;BME280;2670;42.720;23.336;2023-04-09T12:52:32;-22822.22;;;13.08;68.56
5296;BME280;2670;42.720;23.336;2023-04-09T12:54:59;-22820.59;;;13.02;70.25
5296;BME280;2670;42.720;23.336;2023-04-09T12:57:27;-22821.63;;;13.06;68.48
5296;BME280;2670;42.720;23.336;2023-04-09T12:59:53;-22822.81;;;13.10;67.85
5296;BME280;2670;42.720;23.336;2023-04-09T13:02:22;-22821.03;;;13.04;68.16
5296;BME280;2670;42.720;23.336;2023-04-09T13:04:49;-22818.81;;;12.96;67.91